Time;durP1;ratioP1;P1;durP2;ratioP2;P2;SDS_P1;SDS_P2;PMS_P1;PMS_P2;Temp;Humidity;BMP_temperature;BMP_pressure;BME280_temperature;BME280_humidity;BME280_pressure;Samples;Min_cycle;Max_cycle;Signal;HPM_P1;HPM_P2
2023/08/07 00:00:48;;;;;;;1.80;0.90;;;;;;;13.09;100.00;96059.81;5049772;27;101840;-73
2023/08/07 00:03:18;;;;;;;1.10;1.00;;;;;;;13.08;100.00;96071.59;5031493;27;104890;-73
2023/08/07 00:05:46;;;;;;;0.90;0.90;;;;;;;13.09;100.00;96072.41;5030862;27;106077;-73
2023/08/07 00:08:13;;;;;;;0.97;0.90;;;;;;;13.08;100.00;96081.47;5031365;27;101930;-73
2023/08/07 00:10:41;;;;;;;1.03;0.80;;;;;;;13.08;100.00;96070.81;5031306;27;105453;-73
2023/08/07 00:13:08;;;;;;;1.30;0.90;;;;;;;13.08;100.00;96076.91;5035110;27;103975;-73
2023/08/07 00:15:38;;;;;;;6.03;1.10;;;;;;;13.09;100.00;96067.06;5034941;27;105513;-72
2023/08/07 00:18:05;;;;;;;0.70;0.70;;;;;;;13.06;100.00;96073.75;5034095;27;105640;-73
2023/08/07 00:20:32;;;;;;;0.87;0.87;;;;;;;13.04;100.00;96086.53;5034812;27;101880;-73
2023/08/07 00:22:59;;;;;;;0.83;0.83;;;;;;;13.04;100.00;96085.75;5034951;27;105087;-73
2023/08/07 00:25:27;;;;;;;1.10;1.00;;;;;;;13.04;100.00;96085.75;5034140;27;105650;-73
2023/08/07 00:27:55;;;;;;;1.23;0.90;;;;;;;13.00;100.00;96082.03;5052980;27;101857;-73
2023/08/07 00:30:22;;;;;;;0.80;0.80;;;;;;;12.99;100.00;96093.78;5034845;27;105271;-73
2023/08/07 00:32:49;;;;;;;0.97;0.90;;;;;;;12.99;100.00;96083.91;5037380;27;105705;-73
2023/08/07 00:35:16;;;;;;;1.30;0.83;;;;;;;12.96;100.00;96076.44;5034801;27;104920;-73
2023/08/07 00:37:43;;;;;;;1.70;1.00;;;;;;;12.95;100.00;96095.34;5033776;27;105481;-73
2023/08/07 00:40:11;;;;;;;2.73;0.87;;;;;;;12.91;100.00;96092.44;5034466;27;101955;-73
2023/08/07 00:42:39;;;;;;;1.00;0.90;;;;;;;12.89;100.00;96086.59;5034323;27;105046;-73
2023/08/07 00:45:09;;;;;;;0.87;0.87;;;;;;;12.86;100.00;96083.66;5033597;27;104260;-73
2023/08/07 00:47:37;;;;;;;3.70;0.80;;;;;;;12.80;100.00;96063.41;5034496;27;102172;-73
2023/08/07 00:50:05;;;;;;;0.70;0.60;;;;;;;12.74;100.00;96077.81;5034302;27;105270;-73
2023/08/07 00:52:33;;;;;;;0.70;0.70;;;;;;;12.68;100.00;96078.88;5051822;27;102729;-73
2023/08/07 00:55:00;;;;;;;2.43;0.90;;;;;;;12.58;100.00;96089.56;5037685;27;102263;-73
2023/08/07 00:57:28;;;;;;;1.33;0.70;;;;;;;12.50;100.00;96090.13;5032977;27;105756;-72
2023/08/07 00:59:55;;;;;;;0.77;0.60;;;;;;;12.42;100.00;96085.34;5034275;27;101803;-73
2023/08/07 01:02:23;;;;;;;0.60;0.60;;;;;;;12.41;100.00;96073.88;5034290;27;105756;-73
2023/08/07 01:04:51;;;;;;;0.87;0.53;;;;;;;12.37;100.00;96091.47;5033500;27;105834;-73
2023/08/07 01:07:18;;;;;;;1.07;0.80;;;;;;;12.37;100.00;96090.69;5034071;27;102011;-73
2023/08/07 01:09:45;;;;;;;0.60;0.60;;;;;;;12.31;100.00;96060.56;5052371;27;102825;-73
2023/08/07 01:12:17;;;;;;;0.50;0.50;;;;;;;12.31;100.00;96092.56;5033407;27;104386;-73
2023/08/07 01:14:52;;;;;;;1.07;0.60;;;;;;;12.27;100.00;96093.38;5034034;27;102173;-73
2023/08/07 01:17:23;;;;;;;0.50;0.50;;;;;;;12.20;100.00;96092.81;5036963;27;104118;-73
2023/08/07 01:19:52;;;;;;;1.93;0.70;;;;;;;12.18;100.00;96086.97;5033905;27;101894;-73
2023/08/07 01:22:21;;;;;;;0.63;0.63;;;;;;;12.17;100.00;96096.84;5033826;27;104496;-73
2023/08/07 01:24:52;;;;;;;0.53;0.50;;;;;;;12.14;100.00;96101.88;5051285;27;103104;-73
2023/08/07 01:27:31;;;;;;;1.03;0.70;;;;;;;12.09;100.00;96099.22;5033772;27;101894;-73
2023/08/07 01:30:13;;;;;;;1.67;0.70;;;;;;;12.06;100.00;96111.22;5052166;27;102634;-73
2023/08/07 01:32:48;;;;;;;0.70;0.70;;;;;;;12.00;100.00;96103.50;5032898;27;105545;-73
2023/08/07 01:35:17;;;;;;;0.50;0.50;;;;;;;11.97;100.00;96109.34;5033531;27;101923;-73
2023/08/07 01:37:46;;;;;;;0.70;0.70;;;;;;;11.93;100.00;96100.31;5033593;27;105226;-73
2023/08/07 01:40:15;;;;;;;0.60;0.60;;;;;;;11.93;100.00;96106.41;5054731;27;103197;-73
2023/08/07 01:42:43;;;;;;;1.50;0.80;;;;;;;11.88;100.00;96110.94;5033331;27;103965;-73
2023/08/07 01:45:11;;;;;;;0.50;0.50;;;;;;;11.88;100.00;96103.75;5032789;27;104489;-73
2023/08/07 01:47:38;;;;;;;0.90;0.70;;;;;;;11.88;100.00;96103.75;5033965;27;102185;-73
2023/08/07 01:50:06;;;;;;;0.70;0.70;;;;;;;11.87;100.00;96115.47;5033462;27;104762;-72
2023/08/07 01:52:34;;;;;;;0.60;0.50;;;;;;;11.83;100.00;96108.28;5032779;27;105294;-73
2023/08/07 01:55:02;;;;;;;0.70;0.70;;;;;;;11.79;100.00;96112.53;5033628;27;101925;-73
2023/08/07 01:57:30;;;;;;;0.60;0.60;;;;;;;11.72;100.00;96112.00;5033045;27;105486;-73
2023/08/07 01:59:58;;;;;;;0.60;0.60;;;;;;;11.66;100.00;96126.38;5032808;27;105431;-72
2023/08/07 02:02:25;;;;;;;0.57;0.57;;;;;;;11.58;100.00;96110.84;5036901;27;101928;-73
2023/08/07 02:04:52;;;;;;;0.83;0.57;;;;;;;11.51;100.00;96112.97;5032497;27;104674;-73
2023/08/07 02:07:19;;;;;;;0.70;0.70;;;;;;;11.46;100.00;96120.94;5033073;27;101955;-73
2023/08/07 02:09:45;;;;;;;0.60;0.60;;;;;;;11.37;100.00;96127.81;5051456;27;102521;-73
2023/08/07 02:12:14;;;;;;;0.70;0.70;;;;;;;11.37;100.00;96117.19;5032346;27;106143;-73
2023/08/07 02:14:41;;;;;;;0.70;0.70;;;;;;;11.34;100.00;96123.03;5032975;27;101922;-73
2023/08/07 02:17:08;;;;;;;0.60;0.60;;;;;;;11.36;100.00;96115.56;5033007;27;104938;-73
2023/08/07 02:19:36;;;;;;;1.50;0.60;;;;;;;11.34;100.00;96115.84;5032571;27;105599;-73
2023/08/07 02:22:03;;;;;;;0.60;0.60;;;;;;;11.38;100.00;96114.25;5032728;27;102069;-73
2023/08/07 02:24:30;;;;;;;0.90;0.80;;;;;;;11.35;100.00;96113.97;5035726;27;105400;-73
2023/08/07 02:26:57;;;;;;;0.70;0.70;;;;;;;11.34;100.00;96123.03;5051019;27;101876;-73
2023/08/07 02:29:25;;;;;;;0.80;0.70;;;;;;;11.30;100.00;96128.09;5032825;27;104864;-73
2023/08/07 02:31:52;;;;;;;0.93;0.63;;;;;;;11.27;100.00;96122.47;5031937;27;105317;-73
2023/08/07 02:34:19;;;;;;;0.77;0.70;;;;;;;11.22;100.00;96130.41;5032781;27;102094;-73
2023/08/07 02:36:46;;;;;;;1.33;0.80;;;;;;;11.16;100.00;96126.94;5031732;27;105503;-73
2023/08/07 02:39:15;;;;;;;0.70;0.70;;;;;;;11.11;100.00;96123.47;5031836;27;105607;-73
2023/08/07 02:41:42;;;;;;;2.23;0.80;;;;;;;11.07;100.00;96130.38;5032605;27;102134;-73
2023/08/07 02:44:08;;;;;;;1.33;0.70;;;;;;;11.06;100.00;96132.22;5035427;27;105426;-73
2023/08/07 02:46:37;;;;;;;1.40;0.80;;;;;;;11.02;100.00;96125.03;5032625;27;101948;-73
2023/08/07 02:49:04;;;;;;;0.77;0.77;;;;;;;11.00;100.00;96138.59;5032388;27;105522;-73
2023/08/07 02:51:33;;;;;;;1.67;1.00;;;;;;;11.00;100.00;96129.78;5031490;27;105078;-73
2023/08/07 02:54:00;;;;;;;0.77;0.77;;;;;;;10.99;100.00;96130.84;5032357;27;102190;-73
2023/08/07 02:56:27;;;;;;;0.97;0.90;;;;;;;10.99;100.00;96134.34;5032551;27;104883;-73
2023/08/07 02:58:53;;;;;;;0.90;0.90;;;;;;;11.02;100.00;96141.78;5030873;27;105386;-73
2023/08/07 03:01:21;;;;;;;0.80;0.80;;;;;;;11.01;100.00;96136.75;5032530;27;101953;-73
2023/08/07 03:03:49;;;;;;;1.03;0.93;;;;;;;10.97;100.00;96135.66;5032291;27;105453;-73
2023/08/07 03:06:16;;;;;;;0.90;0.90;;;;;;;10.99;100.00;96133.50;5035117;27;105399;-73
2023/08/07 03:08:43;;;;;;;0.80;0.80;;;;;;;10.99;100.00;96141.50;5032081;27;104342;-73
2023/08/07 03:11:10;;;;;;;0.87;0.77;;;;;;;10.97;100.00;96132.97;5031482;27;105508;-73
2023/08/07 03:13:37;;;;;;;1.03;0.93;;;;;;;10.93;100.00;96139.88;5031950;27;101850;-73
2023/08/07 03:16:07;;;;;;;0.87;0.87;;;;;;;10.98;100.00;96147.88;5032063;27;105830;-73
2023/08/07 03:18:35;;;;;;;0.97;0.97;;;;;;;11.04;100.00;96149.50;5031079;27;105524;-73
2023/08/07 03:21:04;;;;;;;0.93;0.90;;;;;;;11.07;100.00;96149.00;5031791;27;102005;-73
2023/08/07 03:23:30;;;;;;;2.23;1.00;;;;;;;11.13;100.00;96148.75;5032008;27;105471;-73
2023/08/07 03:26:04;;;;;;;1.43;1.00;;;;;;;11.12;100.00;96149.81;5031433;27;105616;-73
2023/08/07 03:28:31;;;;;;;1.20;1.00;;;;;;;11.22;100.00;96160.50;5035357;27;101943;-73
2023/08/07 03:30:58;;;;;;;1.17;0.90;;;;;;;11.22;100.00;96168.50;5031165;27;105335;-73
2023/08/07 03:33:26;;;;;;;1.47;1.00;;;;;;;11.25;100.00;96162.66;5031979;27;101859;-73
2023/08/07 03:35:54;;;;;;;0.90;0.90;;;;;;;11.26;100.00;96155.47;5031644;27;105321;-73
2023/08/07 03:38:23;;;;;;;1.27;1.10;;;;;;;11.29;100.00;96162.94;5031251;27;104922;-73
2023/08/07 03:40:52;;;;;;;0.90;0.90;;;;;;;11.29;100.00;96162.94;5031761;27;102051;-73
2023/08/07 03:43:19;;;;;;;1.80;1.10;;;;;;;11.37;100.00;96165.91;5031840;27;105530;-73
2023/08/07 03:45:46;;;;;;;0.93;0.93;;;;;;;11.35;100.00;96154.69;5031379;27;105803;-73
2023/08/07 03:48:14;;;;;;;1.33;1.10;;;;;;;11.37;100.00;96165.09;5034404;27;102280;-73
2023/08/07 03:50:42;;;;;;;1.60;1.00;;;;;;;11.54;100.00;96166.50;5021414;27;105359;-73
2023/08/07 03:53:09;;;;;;;1.10;1.10;;;;;;;11.49;100.00;96163.81;5035106;27;101873;-73
2023/08/07 03:55:45;;;;;;;1.20;1.10;;;;;;;11.49;100.00;96157.69;5035278;27;105123;-73
2023/08/07 03:58:13;;;;;;;2.20;1.27;;;;;;;11.53;100.00;96164.91;5033851;27;105242;-73
2023/08/07 04:00:40;;;;;;;0.93;0.90;;;;;;;11.56;100.00;96174.22;5035172;27;101872;-73
2023/08/07 04:03:07;;;;;;;2.00;1.10;;;;;;;11.67;100.00;96181.22;5034911;27;105495;-73
2023/08/07 04:05:34;;;;;;;1.40;1.03;;;;;;;11.73;100.00;96180.19;5034519;27;105825;-73
2023/08/07 04:08:01;;;;;;;1.13;1.03;;;;;;;11.72;100.00;96173.25;5053386;27;102176;-73
2023/08/07 04:10:28;;;;;;;1.23;1.13;;;;;;;11.70;100.00;96175.34;5035022;27;105765;-73
2023/08/07 04:12:56;;;;;;;1.30;1.00;;;;;;;11.69;100.00;96174.56;5037744;27;105399;-73
2023/08/07 04:15:23;;;;;;;1.80;1.00;;;;;;;11.74;100.00;96181.78;5034821;27;105690;-73
2023/08/07 04:17:50;;;;;;;1.37;1.27;;;;;;;11.81;100.00;96177.00;5034130;27;105531;-73
2023/08/07 04:20:19;;;;;;;1.17;1.00;;;;;;;11.82;100.00;96181.28;5034608;27;102253;-73
2023/08/07 04:22:46;;;;;;;1.77;1.10;;;;;;;11.91;100.00;96177.84;5034761;27;105407;-73
2023/08/07 04:25:14;;;;;;;1.93;1.17;;;;;;;11.88;100.00;96188.22;5034005;27;105793;-73
2023/08/07 04:27:40;;;;;;;1.63;1.20;;;;;;;11.86;100.00;96187.66;5034664;27;101951;-73
2023/08/07 04:30:10;;;;;;;1.00;1.00;;;;;;;11.83;100.00;96190.88;5034709;27;105320;-73
2023/08/07 04:32:37;;;;;;;3.17;1.00;;;;;;;11.84;100.00;96189.78;5033933;27;105134;-73
2023/08/07 04:35:04;;;;;;;1.30;1.20;;;;;;;11.83;100.00;96198.84;5038257;27;101840;-73
2023/08/07 04:37:31;;;;;;;1.33;1.23;;;;;;;11.94;100.00;96192.50;5033936;27;105000;-73
2023/08/07 04:40:00;;;;;;;2.83;1.30;;;;;;;11.89;100.00;96198.59;5034314;27;101947;-73
2023/08/07 04:42:27;;;;;;;2.40;1.13;;;;;;;11.91;100.00;96196.47;5034630;27;104968;-73
2023/08/07 04:44:54;;;;;;;1.73;1.30;;;;;;;11.92;100.00;96187.41;5033841;27;105636;-73
2023/08/07 04:47:22;;;;;;;1.57;1.20;;;;;;;11.95;100.00;96192.19;5034286;27;102409;-73
2023/08/07 04:49:50;;;;;;;1.77;1.30;;;;;;;11.97;100.00;96194.63;5034441;27;105264;-73
2023/08/07 04:52:16;;;;;;;2.00;1.20;;;;;;;12.00;100.00;96197.56;5033583;27;105729;-73
2023/08/07 04:54:43;;;;;;;1.97;1.30;;;;;;;12.00;100.00;96199.44;5037601;27;102032;-73
2023/08/07 04:57:10;;;;;;;1.70;1.60;;;;;;;11.99;100.00;96195.94;5033698;27;106107;-73
2023/08/07 04:59:37;;;;;;;2.07;1.33;;;;;;;12.03;100.00;96190.88;5051576;27;101942;-73
2023/08/07 05:02:05;;;;;;;1.77;1.10;;;;;;;12.06;100.00;96193.03;5034027;27;105585;-73
2023/08/07 05:04:33;;;;;;;2.07;1.53;;;;;;;12.08;100.00;96194.38;5033416;27;105694;-73
2023/08/07 05:07:00;;;;;;;1.40;1.30;;;;;;;12.12;100.00;96191.97;5034028;27;102021;-73
2023/08/07 05:09:27;;;;;;;1.97;1.30;;;;;;;12.19;100.00;96192.53;5034170;27;105565;-73
2023/08/07 05:11:54;;;;;;;1.23;1.10;;;;;;;12.21;100.00;96195.75;5033234;27;103800;-73
2023/08/07 05:14:21;;;;;;;1.43;1.33;;;;;;;12.23;100.00;96197.06;5034177;27;102128;-73
2023/08/07 05:16:49;;;;;;;2.77;1.27;;;;;;;12.25;100.00;96199.44;5036595;27;105431;-73
2023/08/07 05:19:16;;;;;;;2.60;1.60;;;;;;;12.25;100.00;96204.78;5033689;27;102035;-73
2023/08/07 05:21:44;;;;;;;2.30;1.40;;;;;;;12.29;100.00;96203.19;5052140;27;102720;-73
2023/08/07 05:24:12;;;;;;;1.17;1.00;;;;;;;12.30;100.00;96210.13;5033177;27;105449;-73
2023/08/07 05:26:39;;;;;;;2.63;1.30;;;;;;;12.32;100.00;96208.00;5033812;27;101959;-73
2023/08/07 05:29:07;;;;;;;2.93;1.40;;;;;;;12.35;100.00;96210.13;5033684;27;105012;-73
2023/08/07 05:31:34;;;;;;;2.00;1.40;;;;;;;12.37;100.00;96206.13;5032955;27;105584;-73
2023/08/07 05:34:01;;;;;;;1.60;1.50;;;;;;;12.40;100.00;96218.16;5033771;27;102004;-73
2023/08/07 05:36:29;;;;;;;1.53;1.30;;;;;;;12.45;100.00;96221.63;5033700;27;105656;-73
2023/08/07 05:38:58;;;;;;;2.23;1.20;;;;;;;12.46;100.00;96222.41;5036452;27;105739;-73
2023/08/07 05:41:25;;;;;;;1.80;1.40;;;;;;;12.51;100.00;96235.75;5033593;27;105804;-73
2023/08/07 05:43:52;;;;;;;1.53;1.30;;;;;;;12.51;100.00;96227.75;5051346;27;103113;-73
2023/08/07 05:46:19;;;;;;;2.40;1.30;;;;;;;12.55;100.00;96234.16;5033529;27;102040;-73
2023/08/07 05:48:46;;;;;;;1.43;1.27;;;;;;;12.54;100.00;96236.03;5033460;27;105153;-73
2023/08/07 05:51:13;;;;;;;1.50;1.40;;;;;;;12.56;100.00;96235.75;5032858;27;105562;-73
2023/08/07 05:53:39;;;;;;;7.27;2.13;;;;;;;12.55;100.00;96232.31;5051813;27;102041;-73
2023/08/07 05:56:08;;;;;;;2.57;1.27;;;;;;;12.57;100.00;96250.69;5033439;27;104903;-73
2023/08/07 05:58:35;;;;;;;1.60;1.50;;;;;;;12.57;100.00;96250.69;5032067;27;105553;-73
2023/08/07 06:01:02;;;;;;;1.57;1.20;;;;;;;12.58;100.00;96242.44;5036588;27;103015;-73
2023/08/07 06:03:28;;;;;;;1.47;1.30;;;;;;;12.60;100.00;96258.19;5032578;27;105357;-73
2023/08/07 06:05:55;;;;;;;1.37;1.23;;;;;;;12.58;100.00;96271.78;5033146;27;101989;-73
2023/08/07 06:08:22;;;;;;;3.43;1.47;;;;;;;12.56;100.00;96251.75;5033144;27;104921;-73
2023/08/07 06:10:49;;;;;;;1.43;1.33;;;;;;;12.58;100.00;96261.09;5049612;27;103197;-73
2023/08/07 06:13:18;;;;;;;1.30;1.20;;;;;;;12.58;100.00;96261.09;5032885;27;101961;-73
2023/08/07 06:15:45;;;;;;;1.30;1.20;;;;;;;12.58;100.00;96284.28;5032989;27;105265;-73
2023/08/07 06:18:11;;;;;;;1.90;1.20;;;;;;;12.60;100.00;96261.63;5032411;27;103910;-73
2023/08/07 06:20:38;;;;;;;2.37;1.30;;;;;;;12.63;100.00;96260.28;5032865;27;101998;-73
2023/08/07 06:23:06;;;;;;;1.50;1.30;;;;;;;12.62;100.00;96272.84;5035679;27;105512;-73
2023/08/07 06:25:33;;;;;;;2.27;1.20;;;;;;;12.64;100.00;96265.38;5032824;27;102179;-73
2023/08/07 06:28:00;;;;;;;1.37;1.30;;;;;;;12.67;100.00;96269.38;5051106;27;101770;-73
2023/08/07 06:30:28;;;;;;;2.27;1.27;;;;;;;12.67;100.00;96261.38;5032182;27;105565;-73
2023/08/07 06:32:56;;;;;;;1.70;1.13;;;;;;;12.69;100.00;96276.06;5032820;27;101990;-73
2023/08/07 06:35:22;;;;;;;2.97;1.20;;;;;;;12.71;100.00;96281.13;5032723;27;104189;-73
2023/08/07 06:37:50;;;;;;;1.33;1.10;;;;;;;12.69;100.00;96278.72;5032212;27;106119;-73
2023/08/07 06:40:16;;;;;;;1.83;1.50;;;;;;;12.78;100.00;96281.66;5032401;27;102084;-73
2023/08/07 06:42:43;;;;;;;1.03;1.03;;;;;;;12.81;100.00;96281.91;5032641;27;105424;-73
2023/08/07 06:45:11;;;;;;;3.43;1.30;;;;;;;12.78;100.00;96279.00;5035023;27;101968;-73
2023/08/07 06:47:39;;;;;;;1.40;1.30;;;;;;;12.83;100.00;96284.31;5050893;27;102592;-73
2023/08/07 06:50:06;;;;;;;1.30;1.13;;;;;;;12.81;100.00;96286.47;5031706;27;105566;-73
2023/08/07 06:52:33;;;;;;;2.47;1.17;;;;;;;12.84;100.00;96284.06;5032583;27;101898;-73
2023/08/07 06:55:00;;;;;;;1.00;0.90;;;;;;;12.85;100.00;96284.84;5032445;27;105191;-73
2023/08/07 06:57:27;;;;;;;2.00;1.13;;;;;;;12.87;100.00;96290.75;5031305;27;105133;-73
2023/08/07 06:59:54;;;;;;;1.20;1.13;;;;;;;12.88;100.00;96279.81;5032143;27;101869;-73
2023/08/07 07:02:21;;;;;;;1.30;1.20;;;;;;;12.97;100.00;96301.47;5032177;27;105570;-73
2023/08/07 07:04:49;;;;;;;1.30;1.17;;;;;;;12.98;100.00;96287.81;5034905;27;105679;-73
2023/08/07 07:07:16;;;;;;;3.67;1.60;;;;;;;13.02;100.00;96290.78;5032261;27;105200;-73
2023/08/07 07:09:43;;;;;;;1.47;1.30;;;;;;;13.02;100.00;96282.78;5031775;27;105817;-73
2023/08/07 07:12:11;;;;;;;2.53;1.30;;;;;;;13.05;100.00;96285.69;5031902;27;101984;-73
2023/08/07 07:14:38;;;;;;;1.47;1.10;;;;;;;13.15;100.00;96291.03;5031921;27;104988;-73
2023/08/07 07:17:05;;;;;;;3.87;1.60;;;;;;;13.16;100.00;96299.84;5031480;27;105669;-73
2023/08/07 07:19:31;;;;;;;2.20;1.30;;;;;;;13.22;100.00;96302.25;5031976;27;101950;-73
2023/08/07 07:22:00;;;;;;;2.40;1.13;;;;;;;13.25;100.00;96301.69;5031509;27;105406;-73
2023/08/07 07:24:27;;;;;;;2.33;1.40;;;;;;;13.32;100.00;96296.91;5049470;27;103509;-72
2023/08/07 07:26:54;;;;;;;3.00;1.37;;;;;;;13.35;100.00;96304.34;5035197;27;101898;-73
2023/08/07 07:29:21;;;;;;;2.17;1.53;;;;;;;13.46;100.00;96302.47;5031092;27;105503;-73
2023/08/07 07:31:48;;;;;;;1.83;1.40;;;;;;;13.46;100.00;96303.25;5031787;27;102030;-73
2023/08/07 07:34:17;;;;;;;1.20;1.10;;;;;;;13.49;100.00;96301.94;5032807;27;101823;-73
2023/08/07 07:36:44;;;;;;;1.50;1.20;;;;;;;13.59;100.00;96340.13;5031050;27;105435;-73
2023/08/07 07:39:12;;;;;;;1.63;1.27;;;;;;;13.70;100.00;96309.66;5031747;27;101965;-73
2023/08/07 07:41:39;;;;;;;1.20;1.03;;;;;;;13.79;100.00;96304.53;5031737;27;105566;-73
2023/08/07 07:44:06;;;;;;;1.93;1.27;;;;;;;13.72;100.00;96309.34;5030967;27;105658;-73
2023/08/07 07:46:34;;;;;;;2.30;1.40;;;;;;;13.76;100.00;96313.09;5031637;27;102131;-73
2023/08/07 07:49:03;;;;;;;2.07;1.00;;;;;;;13.82;100.00;96317.34;5034332;27;105323;-73
2023/08/07 07:51:31;;;;;;;1.53;1.30;;;;;;;13.78;100.00;96318.94;5031420;27;101922;-73
2023/08/07 07:53:58;;;;;;;1.30;1.20;;;;;;;13.84;100.00;96310.66;5031414;27;105253;-73
2023/08/07 07:56:27;;;;;;;1.50;1.20;;;;;;;13.92;100.00;96320.00;5030709;27;105494;-73
2023/08/07 07:58:54;;;;;;;1.90;1.33;;;;;;;14.09;100.00;96325.81;5030743;27;102093;-73
2023/08/07 08:01:21;;;;;;;1.30;1.00;;;;;;;14.18;100.00;96326.84;5031228;27;105328;-73
2023/08/07 08:03:48;;;;;;;1.87;1.07;;;;;;;14.33;100.00;96316.13;5049069;27;102933;-73
2023/08/07 08:06:15;;;;;;;2.03;1.10;;;;;;;14.40;100.00;96319.28;5031427;27;102065;-73
2023/08/07 08:08:43;;;;;;;1.30;1.20;;;;;;;14.47;100.00;96347.34;5031397;27;105319;-73
2023/08/07 08:11:10;;;;;;;2.23;1.23;;;;;;;14.67;100.00;96304.38;5034171;27;105582;-73
2023/08/07 08:13:40;;;;;;;1.83;1.20;;;;;;;14.57;100.00;96327.75;5049681;27;102959;-73
2023/08/07 08:16:08;;;;;;;1.93;1.10;;;;;;;14.75;100.00;96341.28;5030708;27;105421;-73
2023/08/07 08:18:35;;;;;;;1.13;1.07;;;;;;;14.88;100.00;96327.28;5014607;27;102271;-73
2023/08/07 08:21:02;;;;;;;1.00;1.00;;;;;;;14.69;100.00;96334.38;5031361;27;105009;-73
2023/08/07 08:23:29;;;;;;;2.10;1.20;;;;;;;14.65;100.00;96335.19;5030567;27;105720;-73
2023/08/07 08:25:56;;;;;;;1.70;1.10;;;;;;;14.56;100.00;96339.53;5031157;27;101921;-73
2023/08/07 08:28:23;;;;;;;1.33;1.23;;;;;;;14.65;100.00;96329.81;5031314;27;105283;-73
2023/08/07 08:30:51;;;;;;;1.20;1.10;;;;;;;14.87;100.00;96330.25;5030593;27;105803;-73
2023/08/07 08:33:18;;;;;;;1.87;1.40;;;;;;;14.83;100.00;96332.66;5034490;27;101974;-73
2023/08/07 08:35:45;;;;;;;2.70;1.20;;;;;;;14.74;100.00;96339.69;5033865;27;105085;-72
2023/08/07 08:38:12;;;;;;;1.30;1.20;;;;;;;14.88;100.00;96347.91;5034564;27;102457;-72
2023/08/07 08:40:39;;;;;;;1.40;1.20;;;;;;;14.65;100.00;96348.56;5034472;27;105078;-73
2023/08/07 08:43:07;;;;;;;2.60;1.03;;;;;;;14.67;100.00;96341.84;5033877;27;105300;-73
2023/08/07 08:45:37;;;;;;;1.30;1.10;;;;;;;14.70;100.00;96345.84;5034382;27;102369;-73
2023/08/07 08:48:11;;;;;;;1.67;1.40;;;;;;;14.68;100.00;96361.41;5034578;27;105917;-73
2023/08/07 08:50:40;;;;;;;1.73;1.20;;;;;;;14.62;100.00;96349.13;5033848;27;105041;-73
2023/08/07 08:53:08;;;;;;;0.93;0.90;;;;;;;14.64;100.00;96352.31;5037629;27;102053;-73
2023/08/07 08:55:36;;;;;;;2.47;1.20;;;;;;;14.69;100.00;96358.47;5033556;27;105887;-73
2023/08/07 08:58:04;;;;;;;1.50;1.40;;;;;;;14.77;100.00;96351.72;5033678;27;101901;-73
2023/08/07 09:00:34;;;;;;;1.33;1.20;;;;;;;14.94;100.00;96346.78;5017302;27;105401;-73
2023/08/07 09:03:02;;;;;;;1.37;1.27;;;;;;;14.98;100.00;96366.59;5033616;27;105324;-73
2023/08/07 09:05:30;;;;;;;1.23;1.13;;;;;;;14.96;100.00;96350.78;5034018;27;101779;-73
2023/08/07 09:07:58;;;;;;;1.70;1.60;;;;;;;14.84;100.00;96360.25;5033932;27;105331;-73
2023/08/07 09:10:26;;;;;;;1.53;1.10;;;;;;;14.84;100.00;96368.28;5016801;27;105161;-73
2023/08/07 09:12:58;;;;;;;1.10;1.00;;;;;;;14.76;100.00;96375.00;5034205;27;101892;-73
2023/08/07 09:15:26;;;;;;;1.03;1.03;;;;;;;14.63;100.00;96367.59;5036953;27;104893;-73
2023/08/07 09:17:56;;;;;;;1.57;1.00;;;;;;;14.66;100.00;96366.25;5033867;27;101926;-73
2023/08/07 09:20:23;;;;;;;0.97;0.93;;;;;;;14.64;100.00;96366.53;5034175;27;104867;-73
2023/08/07 09:22:51;;;;;;;1.93;1.30;;;;;;;14.60;100.00;96373.50;5033236;27;105537;-73
2023/08/07 09:25:28;;;;;;;1.47;1.00;;;;;;;14.62;100.00;96373.22;5033964;27;101933;-73
2023/08/07 09:27:56;;;;;;;1.30;1.20;;;;;;;14.69;100.00;96371.03;5033809;27;105483;-73
2023/08/07 09:30:28;;;;;;;2.53;1.13;;;;;;;14.65;100.00;96364.63;5033178;27;105624;-73
2023/08/07 09:32:55;;;;;;;1.27;1.17;;;;;;;14.65;100.00;96370.78;5033798;27;102229;-73
2023/08/07 09:35:22;;;;;;;0.90;0.90;;;;;;;14.49;100.00;96384.53;5033591;27;105551;-73
2023/08/07 09:37:49;;;;;;;2.40;1.20;;;;;;;14.51;100.00;96359.06;5036356;27;105579;-73
2023/08/07 09:40:17;;;;;;;1.43;1.33;;;;;;;14.54;100.00;96371.09;5033908;27;105643;-73
2023/08/07 09:42:44;;;;;;;1.60;1.50;;;;;;;14.65;100.00;96367.31;5032845;27;106021;-73
2023/08/07 09:45:22;;;;;;;2.37;1.10;;;;;;;14.80;100.00;96372.56;5033439;27;101808;-73
2023/08/07 09:47:58;;;;;;;2.33;1.37;;;;;;;14.79;100.00;96376.34;5033436;27;105240;-73
2023/08/07 09:50:26;;;;;;;1.80;1.13;;;;;;;14.72;100.00;96370.50;5032704;27;105033;-73
2023/08/07 09:52:53;;;;;;;1.77;1.17;;;;;;;14.52;100.00;96376.75;5033191;27;102109;-73
2023/08/07 09:55:22;;;;;;;2.70;1.10;;;;;;;14.50;100.00;96378.88;5016875;27;104802;-73
2023/08/07 09:57:51;;;;;;;1.67;1.10;;;;;;;14.58;100.00;96372.97;5032128;27;105234;-73
2023/08/07 10:00:20;;;;;;;1.53;1.20;;;;;;;14.55;100.00;96380.75;5036523;27;101867;-73
2023/08/07 10:02:48;;;;;;;1.30;1.30;;;;;;;14.49;100.00;96397.91;5032648;27;105394;-73
2023/08/07 10:05:16;;;;;;;3.80;1.80;;;;;;;14.51;100.00;96398.44;5032894;27;101922;-73
2023/08/07 10:07:43;;;;;;;1.40;1.07;;;;;;;14.52;100.00;96408.06;5051649;27;102826;-73
2023/08/07 10:10:11;;;;;;;1.20;1.10;;;;;;;14.56;100.00;96398.41;5032610;27;105794;-73
2023/08/07 10:12:40;;;;;;;1.83;1.33;;;;;;;14.49;100.00;96392.56;5051155;27;101885;-73
2023/08/07 10:15:08;;;;;;;2.17;1.40;;;;;;;14.40;100.00;96389.63;5032988;27;105360;-73
2023/08/07 10:17:36;;;;;;;2.00;1.40;;;;;;;14.62;100.00;96392.75;5032432;27;105599;-73
2023/08/07 10:20:04;;;;;;;1.63;1.20;;;;;;;14.65;100.00;96391.38;5032637;27;101933;-73
2023/08/07 10:22:32;;;;;;;1.30;1.20;;;;;;;14.67;100.00;96381.22;5035793;27;104054;-73
2023/08/07 10:25:03;;;;;;;1.43;1.33;;;;;;;14.99;100.00;96387.72;5032722;27;101999;-73
2023/08/07 10:27:34;;;;;;;1.50;1.40;;;;;;;14.95;100.00;96394.72;5032782;27;105690;-73
2023/08/07 10:30:08;;;;;;;1.53;1.30;;;;;;;14.97;100.00;96389.88;5032486;27;105326;-73
2023/08/07 10:32:36;;;;;;;1.13;1.10;;;;;;;15.02;100.00;96392.53;5050988;27;101889;-73
2023/08/07 10:35:05;;;;;;;1.70;1.30;;;;;;;15.20;100.00;96404.47;5032723;27;105267;-73
2023/08/07 10:37:41;;;;;;;1.77;1.30;;;;;;;15.29;100.00;96402.78;5031952;27;105887;-73
2023/08/07 10:40:10;;;;;;;2.20;1.10;;;;;;;14.98;100.00;96406.75;5051175;27;101854;-73
2023/08/07 10:42:58;;;;;;;3.47;1.40;;;;;;;14.82;100.00;96406.03;5032736;27;105341;-73
2023/08/07 10:45:27;;;;;;;3.17;1.27;;;;;;;14.86;100.00;96391.03;5035527;27;105652;-72
2023/08/07 10:47:59;;;;;;;1.40;1.23;;;;;;;15.01;100.00;96398.97;5050816;27;102652;-72
2023/08/07 10:50:31;;;;;;;1.40;1.20;;;;;;;15.12;100.00;96387.09;5031800;27;105429;-73
2023/08/07 10:53:00;;;;;;;2.03;1.40;;;;;;;15.23;100.00;96385.97;5032509;27;101771;-73
2023/08/07 10:55:27;;;;;;;1.97;1.30;;;;;;;15.12;100.00;96380.94;5032490;27;105533;-73
2023/08/07 10:57:55;;;;;;;1.27;1.10;;;;;;;15.22;100.00;96388.91;5048677;27;102938;-73
2023/08/07 11:00:28;;;;;;;1.67;1.30;;;;;;;15.21;100.00;96374.69;5032279;27;101855;-73
2023/08/07 11:02:59;;;;;;;1.43;1.33;;;;;;;15.16;100.00;96388.13;5050886;27;103062;-73
2023/08/07 11:05:26;;;;;;;2.07;1.30;;;;;;;15.36;100.00;96385.34;5035010;27;105664;-73
2023/08/07 11:07:55;;;;;;;1.33;1.23;;;;;;;15.40;100.00;96385.56;5050554;27;102629;-73
2023/08/07 11:10:21;;;;;;;1.40;1.10;;;;;;;15.37;100.00;96378.13;5031603;27;104160;-73
2023/08/07 11:12:50;;;;;;;1.50;1.40;;;;;;;15.41;100.00;96376.44;5032389;27;102099;-73
2023/08/07 11:15:16;;;;;;;1.73;1.30;;;;;;;15.35;100.00;96380.25;5031915;27;105801;-73
2023/08/07 11:17:46;;;;;;;1.23;1.10;;;;;;;15.41;100.00;96374.59;5031463;27;104852;-73
2023/08/07 11:20:13;;;;;;;2.17;1.10;;;;;;;15.56;100.00;96373.66;5032093;27;102165;-73